sensor_id;sensor_type;location;lat;lon;timestamp;P1;durP1;ratioP1;P2;durP2;ratioP2
51266;SDS011;37338;47.426;19.204;2024-01-30T00:00:04;34.30;;;17.80;;
51266;SDS011;37338;47.426;19.204;2024-01-30T00:02:30;32.53;;;17.07;;
51266;SDS011;37338;47.426;19.204;2024-01-30T00:04:56;31.10;;;17.20;;
51266;SDS011;37338;47.426;19.204;2024-01-30T00:07:22;27.27;;;16.73;;
51266;SDS011;37338;47.426;19.204;2024-01-30T00:09:47;36.83;;;18.40;;
51266;SDS011;37338;47.426;19.204;2024-01-30T00:12:15;34.97;;;18.47;;
51266;SDS011;37338;47.426;19.204;2024-01-30T00:14:41;32.00;;;18.17;;
51266;SDS011;37338;47.426;19.204;2024-01-30T00:17:08;38.00;;;19.53;;
51266;SDS011;37338;47.426;19.204;2024-01-30T00:19:33;37.80;;;19.40;;
51266;SDS011;37338;47.426;19.204;2024-01-30T00:21:58;40.70;;;21.37;;
51266;SDS011;37338;47.426;19.204;2024-01-30T00:24:24;35.27;;;20.03;;
51266;SDS011;37338;47.426;19.204;2024-01-30T00:26:49;43.60;;;21.93;;
51266;SDS011;37338;47.426;19.204;2024-01-30T00:29:14;41.40;;;22.67;;
51266;SDS011;37338;47.426;19.204;2024-01-30T00:31:44;38.27;;;22.07;;
51266;SDS011;37338;47.426;19.204;2024-01-30T00:34:09;39.80;;;21.87;;
51266;SDS011;37338;47.426;19.204;2024-01-30T00:36:35;40.80;;;23.07;;
51266;SDS011;37338;47.426;19.204;2024-01-30T00:39:00;38.40;;;22.33;;
51266;SDS011;37338;47.426;19.204;2024-01-30T00:41:25;46.80;;;23.27;;
51266;SDS011;37338;47.426;19.204;2024-01-30T00:43:51;46.67;;;26.27;;
51266;SDS011;37338;47.426;19.204;2024-01-30T00:46:17;45.23;;;23.63;;
51266;SDS011;37338;47.426;19.204;2024-01-30T00:48:42;41.97;;;24.20;;
51266;SDS011;37338;47.426;19.204;2024-01-30T00:51:07;43.87;;;23.60;;
51266;SDS011;37338;47.426;19.204;2024-01-30T00:53:33;46.97;;;23.03;;
51266;SDS011;37338;47.426;19.204;2024-01-30T00:55:58;39.83;;;22.10;;
51266;SDS011;37338;47.426;19.204;2024-01-30T00:58:23;42.27;;;22.50;;
51266;SDS011;37338;47.426;19.204;2024-01-30T01:00:49;44.83;;;24.27;;
51266;SDS011;37338;47.426;19.204;2024-01-30T01:03:14;43.83;;;23.13;;
51266;SDS011;37338;47.426;19.204;2024-01-30T01:05:39;43.90;;;23.60;;
51266;SDS011;37338;47.426;19.204;2024-01-30T01:08:05;44.27;;;22.77;;
51266;SDS011;37338;47.426;19.204;2024-01-30T01:10:30;43.00;;;21.80;;
51266;SDS011;37338;47.426;19.204;2024-01-30T01:12:55;37.73;;;22.20;;
51266;SDS011;37338;47.426;19.204;2024-01-30T01:15:21;43.07;;;22.23;;
51266;SDS011;37338;47.426;19.204;2024-01-30T01:17:46;45.10;;;22.80;;
51266;SDS011;37338;47.426;19.204;2024-01-30T01:20:11;47.40;;;23.03;;
51266;SDS011;37338;47.426;19.204;2024-01-30T01:22:37;43.53;;;23.20;;
51266;SDS011;37338;47.426;19.204;2024-01-30T01:25:03;39.40;;;21.47;;
51266;SDS011;37338;47.426;19.204;2024-01-30T01:27:31;42.40;;;24.50;;
51266;SDS011;37338;47.426;19.204;2024-01-30T01:29:58;42.23;;;24.77;;
51266;SDS011;37338;47.426;19.204;2024-01-30T01:32:23;40.67;;;22.83;;
51266;SDS011;37338;47.426;19.204;2024-01-30T01:34:48;44.90;;;22.97;;
51266;SDS011;37338;47.426;19.204;2024-01-30T01:37:14;44.97;;;24.93;;
51266;SDS011;37338;47.426;19.204;2024-01-30T01:39:39;40.47;;;22.40;;
51266;SDS011;37338;47.426;19.204;2024-01-30T01:42:05;38.67;;;22.20;;
51266;SDS011;37338;47.426;19.204;2024-01-30T01:44:30;49.07;;;24.37;;
51266;SDS011;37338;47.426;19.204;2024-01-30T01:46:55;42.90;;;23.03;;
51266;SDS011;37338;47.426;19.204;2024-01-30T01:49:23;48.63;;;23.97;;
51266;SDS011;37338;47.426;19.204;2024-01-30T01:51:49;44.57;;;24.37;;
51266;SDS011;37338;47.426;19.204;2024-01-30T01:54:16;41.83;;;23.03;;
51266;SDS011;37338;47.426;19.204;2024-01-30T01:56:42;43.20;;;21.63;;
51266;SDS011;37338;47.426;19.204;2024-01-30T01:59:08;40.23;;;23.40;;
51266;SDS011;37338;47.426;19.204;2024-01-30T02:01:34;46.37;;;24.93;;
51266;SDS011;37338;47.426;19.204;2024-01-30T02:04:01;41.70;;;22.73;;
51266;SDS011;37338;47.426;19.204;2024-01-30T02:06:26;46.87;;;23.23;;
51266;SDS011;37338;47.426;19.204;2024-01-30T02:08:52;44.60;;;23.60;;
51266;SDS011;37338;47.426;19.204;2024-01-30T02:11:18;40.03;;;23.40;;
51266;SDS011;37338;47.426;19.204;2024-01-30T02:13:43;38.50;;;22.23;;
51266;SDS011;37338;47.426;19.204;2024-01-30T02:16:08;40.97;;;21.23;;
51266;SDS011;37338;47.426;19.204;2024-01-30T02:18:33;46.30;;;22.90;;
51266;SDS011;37338;47.426;19.204;2024-01-30T02:20:59;40.50;;;21.60;;
51266;SDS011;37338;47.426;19.204;2024-01-30T02:23:28;40.60;;;21.23;;
51266;SDS011;37338;47.426;19.204;2024-01-30T02:25:55;40.23;;;23.73;;
51266;SDS011;37338;47.426;19.204;2024-01-30T02:28:20;38.77;;;22.63;;
51266;SDS011;37338;47.426;19.204;2024-01-30T02:30:46;42.50;;;21.70;;
51266;SDS011;37338;47.426;19.204;2024-01-30T02:33:12;44.70;;;22.30;;
51266;SDS011;37338;47.426;19.204;2024-01-30T02:35:37;40.60;;;22.90;;
51266;SDS011;37338;47.426;19.204;2024-01-30T02:38:03;41.07;;;22.07;;
51266;SDS011;37338;47.426;19.204;2024-01-30T02:40:28;41.40;;;20.97;;
51266;SDS011;37338;47.426;19.204;2024-01-30T02:42:53;41.43;;;23.50;;
51266;SDS011;37338;47.426;19.204;2024-01-30T02:45:19;42.77;;;24.00;;
51266;SDS011;37338;47.426;19.204;2024-01-30T02:47:45;45.10;;;25.10;;
51266;SDS011;37338;47.426;19.204;2024-01-30T02:50:11;46.37;;;23.53;;
51266;SDS011;37338;47.426;19.204;2024-01-30T02:52:36;36.37;;;20.97;;
51266;SDS011;37338;47.426;19.204;2024-01-30T02:55:01;40.77;;;22.70;;
51266;SDS011;37338;47.426;19.204;2024-01-30T02:57:27;41.40;;;22.27;;
51266;SDS011;37338;47.426;19.204;2024-01-30T02:59:53;45.07;;;23.13;;
51266;SDS011;37338;47.426;19.204;2024-01-30T03:02:18;41.20;;;21.87;;
51266;SDS011;37338;47.426;19.204;2024-01-30T03:04:43;42.00;;;23.70;;
51266;SDS011;37338;47.426;19.204;2024-01-30T03:07:09;42.47;;;20.03;;
51266;SDS011;37338;47.426;19.204;2024-01-30T03:09:34;37.90;;;21.23;;
51266;SDS011;37338;47.426;19.204;2024-01-30T03:12:01;43.00;;;21.50;;
51266;SDS011;37338;47.426;19.204;2024-01-30T03:14:27;41.67;;;22.90;;
51266;SDS011;37338;47.426;19.204;2024-01-30T03:16:52;41.83;;;21.10;;
51266;SDS011;37338;47.426;19.204;2024-01-30T03:19:17;37.67;;;20.60;;
51266;SDS011;37338;47.426;19.204;2024-01-30T03:21:43;41.90;;;23.07;;
51266;SDS011;37338;47.426;19.204;2024-01-30T03:24:09;39.80;;;20.80;;
51266;SDS011;37338;47.426;19.204;2024-01-30T03:26:34;36.90;;;20.80;;
51266;SDS011;37338;47.426;19.204;2024-01-30T03:28:59;39.60;;;20.67;;
51266;SDS011;37338;47.426;19.204;2024-01-30T03:31:25;33.97;;;19.57;;
51266;SDS011;37338;47.426;19.204;2024-01-30T03:33:50;35.80;;;20.77;;
51266;SDS011;37338;47.426;19.204;2024-01-30T03:36:15;34.27;;;20.00;;
51266;SDS011;37338;47.426;19.204;2024-01-30T03:38:42;36.53;;;19.30;;
51266;SDS011;37338;47.426;19.204;2024-01-30T03:41:07;36.97;;;20.47;;
51266;SDS011;37338;47.426;19.204;2024-01-30T03:43:34;33.43;;;20.67;;
51266;SDS011;37338;47.426;19.204;2024-01-30T03:45:59;36.97;;;19.80;;
51266;SDS011;37338;47.426;19.204;2024-01-30T03:48:26;39.33;;;19.53;;
51266;SDS011;37338;47.426;19.204;2024-01-30T03:50:51;41.03;;;20.53;;
51266;SDS011;37338;47.426;19.204;2024-01-30T03:53:17;36.93;;;19.47;;
51266;SDS011;37338;47.426;19.204;2024-01-30T03:55:42;37.10;;;20.70;;
51266;SDS011;37338;47.426;19.204;2024-01-30T03:58:08;35.00;;;19.70;;
51266;SDS011;37338;47.426;19.204;2024-01-30T04:00:33;37.90;;;20.20;;
51266;SDS011;37338;47.426;19.204;2024-01-30T04:02:58;38.77;;;21.13;;
51266;SDS011;37338;47.426;19.204;2024-01-30T04:05:23;35.33;;;19.20;;
51266;SDS011;37338;47.426;19.204;2024-01-30T04:07:49;35.10;;;20.73;;
51266;SDS011;37338;47.426;19.204;2024-01-30T04:10:14;39.57;;;21.87;;
51266;SDS011;37338;47.426;19.204;2024-01-30T04:12:39;41.20;;;22.13;;
51266;SDS011;37338;47.426;19.204;2024-01-30T04:15:05;32.17;;;18.20;;
51266;SDS011;37338;47.426;19.204;2024-01-30T04:17:30;39.03;;;20.30;;
51266;SDS011;37338;47.426;19.204;2024-01-30T04:19:55;34.40;;;19.10;;
51266;SDS011;37338;47.426;19.204;2024-01-30T04:22:21;33.80;;;19.10;;
51266;SDS011;37338;47.426;19.204;2024-01-30T04:24:46;39.10;;;19.23;;
51266;SDS011;37338;47.426;19.204;2024-01-30T04:27:12;33.53;;;18.47;;
51266;SDS011;37338;47.426;19.204;2024-01-30T04:29:37;36.03;;;18.93;;
51266;SDS011;37338;47.426;19.204;2024-01-30T04:32:02;34.07;;;18.27;;
51266;SDS011;37338;47.426;19.204;2024-01-30T04:34:28;31.60;;;18.70;;
51266;SDS011;37338;47.426;19.204;2024-01-30T04:36:53;33.60;;;19.47;;
51266;SDS011;37338;47.426;19.204;2024-01-30T04:39:19;31.67;;;18.47;;
51266;SDS011;37338;47.426;19.204;2024-01-30T04:41:44;31.13;;;19.70;;
51266;SDS011;37338;47.426;19.204;2024-01-30T04:44:09;29.63;;;17.37;;
51266;SDS011;37338;47.426;19.204;2024-01-30T04:46:35;30.00;;;19.27;;
51266;SDS011;37338;47.426;19.204;2024-01-30T04:49:00;34.47;;;19.03;;
51266;SDS011;37338;47.426;19.204;2024-01-30T04:51:25;33.60;;;18.83;;
51266;SDS011;37338;47.426;19.204;2024-01-30T04:53:50;30.80;;;18.10;;
51266;SDS011;37338;47.426;19.204;2024-01-30T04:56:16;35.00;;;19.00;;
51266;SDS011;37338;47.426;19.204;2024-01-30T04:58:41;34.30;;;19.43;;
51266;SDS011;37338;47.426;19.204;2024-01-30T05:01:06;33.20;;;18.53;;
51266;SDS011;37338;47.426;19.204;2024-01-30T05:03:35;34.57;;;18.37;;
51266;SDS011;37338;47.426;19.204;2024-01-30T05:06:00;32.67;;;18.83;;
51266;SDS011;37338;47.426;19.204;2024-01-30T05:08:26;36.90;;;18.77;;
51266;SDS011;37338;47.426;19.204;2024-01-30T05:10:51;37.30;;;20.80;;
51266;SDS011;37338;47.426;19.204;2024-01-30T05:13:16;37.53;;;20.10;;
51266;SDS011;37338;47.426;19.204;2024-01-30T05:15:42;38.10;;;21.67;;
51266;SDS011;37338;47.426;19.204;2024-01-30T05:18:07;39.37;;;21.00;;
51266;SDS011;37338;47.426;19.204;2024-01-30T05:20:32;45.77;;;22.53;;
51266;SDS011;37338;47.426;19.204;2024-01-30T05:22:58;39.90;;;21.37;;
51266;SDS011;37338;47.426;19.204;2024-01-30T05:25:23;47.90;;;24.17;;
51266;SDS011;37338;47.426;19.204;2024-01-30T05:27:48;49.67;;;23.80;;
51266;SDS011;37338;47.426;19.204;2024-01-30T05:30:14;47.43;;;23.93;;
51266;SDS011;37338;47.426;19.204;2024-01-30T05:32:40;46.97;;;22.33;;
51266;SDS011;37338;47.426;19.204;2024-01-30T05:35:05;40.77;;;22.63;;
51266;SDS011;37338;47.426;19.204;2024-01-30T05:37:32;38.43;;;21.20;;
51266;SDS011;37338;47.426;19.204;2024-01-30T05:39:58;36.10;;;20.10;;
51266;SDS011;37338;47.426;19.204;2024-01-30T05:42:23;40.47;;;19.43;;
51266;SDS011;37338;47.426;19.204;2024-01-30T05:44:48;40.13;;;20.40;;
51266;SDS011;37338;47.426;19.204;2024-01-30T05:47:14;43.80;;;20.90;;
51266;SDS011;37338;47.426;19.204;2024-01-30T05:49:39;35.47;;;20.93;;
51266;SDS011;37338;47.426;19.204;2024-01-30T05:52:05;37.87;;;20.17;;
51266;SDS011;37338;47.426;19.204;2024-01-30T05:54:30;37.90;;;22.03;;
51266;SDS011;37338;47.426;19.204;2024-01-30T05:56:56;36.13;;;20.50;;
51266;SDS011;37338;47.426;19.204;2024-01-30T05:59:21;34.60;;;19.77;;
51266;SDS011;37338;47.426;19.204;2024-01-30T06:01:47;40.53;;;20.00;;
51266;SDS011;37338;47.426;19.204;2024-01-30T06:04:12;41.30;;;20.90;;
51266;SDS011;37338;47.426;19.204;2024-01-30T06:06:38;40.30;;;20.43;;
51266;SDS011;37338;47.426;19.204;2024-01-30T06:09:03;43.50;;;21.93;;
51266;SDS011;37338;47.426;19.204;2024-01-30T06:11:28;53.10;;;23.57;;
51266;SDS011;37338;47.426;19.204;2024-01-30T06:13:54;47.83;;;22.27;;
51266;SDS011;37338;47.426;19.204;2024-01-30T06:16:19;46.30;;;21.97;;
51266;SDS011;37338;47.426;19.204;2024-01-30T06:18:46;39.37;;;19.73;;
51266;SDS011;37338;47.426;19.204;2024-01-30T06:21:12;44.97;;;22.07;;
51266;SDS011;37338;47.426;19.204;2024-01-30T06:23:38;39.63;;;21.07;;
51266;SDS011;37338;47.426;19.204;2024-01-30T06:26:03;40.37;;;21.87;;
51266;SDS011;37338;47.426;19.204;2024-01-30T06:28:28;59.57;;;23.50;;
51266;SDS011;37338;47.426;19.204;2024-01-30T06:30:54;57.50;;;23.17;;
51266;SDS011;37338;47.426;19.204;2024-01-30T06:33:19;36.50;;;20.40;;
51266;SDS011;37338;47.426;19.204;2024-01-30T06:35:44;44.50;;;19.23;;
51266;SDS011;37338;47.426;19.204;2024-01-30T06:38:10;38.07;;;20.20;;
51266;SDS011;37338;47.426;19.204;2024-01-30T06:40:36;47.53;;;20.87;;
51266;SDS011;37338;47.426;19.204;2024-01-30T06:43:02;53.60;;;21.33;;
51266;SDS011;37338;47.426;19.204;2024-01-30T06:45:29;38.40;;;20.87;;
51266;SDS011;37338;47.426;19.204;2024-01-30T06:47:54;45.97;;;21.30;;
51266;SDS011;37338;47.426;19.204;2024-01-30T06:50:19;41.97;;;19.57;;
51266;SDS011;37338;47.426;19.204;2024-01-30T06:52:45;34.27;;;18.57;;
51266;SDS011;37338;47.426;19.204;2024-01-30T06:55:10;38.20;;;19.10;;
51266;SDS011;37338;47.426;19.204;2024-01-30T06:57:36;34.00;;;19.33;;
51266;SDS011;37338;47.426;19.204;2024-01-30T07:00:01;34.33;;;20.20;;
51266;SDS011;37338;47.426;19.204;2024-01-30T07:02:27;35.70;;;19.47;;
51266;SDS011;37338;47.426;19.204;2024-01-30T07:04:52;38.90;;;21.63;;
51266;SDS011;37338;47.426;19.204;2024-01-30T07:07:17;37.97;;;22.03;;
51266;SDS011;37338;47.426;19.204;2024-01-30T07:09:43;47.03;;;25.17;;
51266;SDS011;37338;47.426;19.204;2024-01-30T07:12:08;46.57;;;25.27;;
51266;SDS011;37338;47.426;19.204;2024-01-30T07:14:34;47.60;;;27.07;;
51266;SDS011;37338;47.426;19.204;2024-01-30T07:16:59;51.47;;;28.13;;
51266;SDS011;37338;47.426;19.204;2024-01-30T07:19:24;49.20;;;27.77;;
51266;SDS011;37338;47.426;19.204;2024-01-30T07:21:49;46.80;;;26.10;;
51266;SDS011;37338;47.426;19.204;2024-01-30T07:24:15;52.10;;;27.03;;
51266;SDS011;37338;47.426;19.204;2024-01-30T07:26:40;52.67;;;27.33;;
51266;SDS011;37338;47.426;19.204;2024-01-30T07:29:06;55.70;;;28.07;;
51266;SDS011;37338;47.426;19.204;2024-01-30T07:31:31;52.13;;;28.07;;
51266;SDS011;37338;47.426;19.204;2024-01-30T07:33:56;47.67;;;26.30;;
51266;SDS011;37338;47.426;19.204;2024-01-30T07:36:22;44.07;;;24.33;;
51266;SDS011;37338;47.426;19.204;2024-01-30T07:38:47;45.47;;;24.60;;
51266;SDS011;37338;47.426;19.204;2024-01-30T07:41:12;50.07;;;24.53;;
51266;SDS011;37338;47.426;19.204;2024-01-30T07:43:38;46.93;;;24.20;;
51266;SDS011;37338;47.426;19.204;2024-01-30T07:46:04;44.57;;;25.67;;
51266;SDS011;37338;47.426;19.204;2024-01-30T07:48:31;48.13;;;24.03;;
51266;SDS011;37338;47.426;19.204;2024-01-30T07:50:58;41.70;;;24.40;;
51266;SDS011;37338;47.426;19.204;2024-01-30T07:53:24;39.83;;;23.90;;
51266;SDS011;37338;47.426;19.204;2024-01-30T07:55:58;39.57;;;22.47;;
51266;SDS011;37338;47.426;19.204;2024-01-30T07:58:24;39.80;;;22.37;;
51266;SDS011;37338;47.426;19.204;2024-01-30T08:00:49;36.00;;;21.50;;
51266;SDS011;37338;47.426;19.204;2024-01-30T08:03:16;33.10;;;20.23;;
51266;SDS011;37338;47.426;19.204;2024-01-30T08:05:43;36.90;;;21.30;;
51266;SDS011;37338;47.426;19.204;2024-01-30T08:08:08;36.40;;;22.23;;
51266;SDS011;37338;47.426;19.204;2024-01-30T08:10:33;37.90;;;22.07;;
51266;SDS011;37338;47.426;19.204;2024-01-30T08:12:59;35.67;;;20.47;;
51266;SDS011;37338;47.426;19.204;2024-01-30T08:15:24;30.20;;;19.00;;
51266;SDS011;37338;47.426;19.204;2024-01-30T08:17:49;31.27;;;18.43;;
51266;SDS011;37338;47.426;19.204;2024-01-30T08:20:14;35.50;;;20.73;;
51266;SDS011;37338;47.426;19.204;2024-01-30T08:22:41;37.73;;;20.50;;
51266;SDS011;37338;47.426;19.204;2024-01-30T08:25:06;31.87;;;20.27;;
51266;SDS011;37338;47.426;19.204;2024-01-30T08:27:32;33.90;;;20.30;;
51266;SDS011;37338;47.426;19.204;2024-01-30T08:29:58;34.97;;;21.97;;
51266;SDS011;37338;47.426;19.204;2024-01-30T08:32:23;39.93;;;21.33;;
51266;SDS011;37338;47.426;19.204;2024-01-30T08:34:49;35.40;;;20.10;;
51266;SDS011;37338;47.426;19.204;2024-01-30T08:37:14;34.23;;;20.20;;
51266;SDS011;37338;47.426;19.204;2024-01-30T08:39:41;30.87;;;20.53;;
51266;SDS011;37338;47.426;19.204;2024-01-30T08:42:07;32.47;;;20.37;;
51266;SDS011;37338;47.426;19.204;2024-01-30T08:44:33;32.03;;;17.03;;
51266;SDS011;37338;47.426;19.204;2024-01-30T08:46:58;27.13;;;18.20;;
51266;SDS011;37338;47.426;19.204;2024-01-30T08:49:23;32.77;;;19.67;;
51266;SDS011;37338;47.426;19.204;2024-01-30T08:51:48;36.20;;;20.67;;
51266;SDS011;37338;47.426;19.204;2024-01-30T08:54:15;30.70;;;19.17;;
51266;SDS011;37338;47.426;19.204;2024-01-30T08:56:40;29.27;;;18.10;;
51266;SDS011;37338;47.426;19.204;2024-01-30T08:59:06;33.10;;;20.43;;
51266;SDS011;37338;47.426;19.204;2024-01-30T09:01:31;28.80;;;18.87;;
51266;SDS011;37338;47.426;19.204;2024-01-30T09:03:56;28.87;;;18.90;;
51266;SDS011;37338;47.426;19.204;2024-01-30T09:06:22;29.87;;;19.50;;
51266;SDS011;37338;47.426;19.204;2024-01-30T09:08:47;33.10;;;20.77;;
51266;SDS011;37338;47.426;19.204;2024-01-30T09:11:13;32.37;;;20.03;;
51266;SDS011;37338;47.426;19.204;2024-01-30T09:13:39;36.40;;;20.50;;
51266;SDS011;37338;47.426;19.204;2024-01-30T09:16:05;32.70;;;19.93;;
51266;SDS011;37338;47.426;19.204;2024-01-30T09:18:30;33.27;;;20.67;;
51266;SDS011;37338;47.426;19.204;2024-01-30T09:20:56;30.70;;;20.90;;
51266;SDS011;37338;47.426;19.204;2024-01-30T09:23:21;36.57;;;21.03;;
51266;SDS011;37338;47.426;19.204;2024-01-30T09:25:47;32.60;;;20.97;;
51266;SDS011;37338;47.426;19.204;2024-01-30T09:28:12;38.33;;;21.80;;
51266;SDS011;37338;47.426;19.204;2024-01-30T09:30:37;33.67;;;19.53;;
51266;SDS011;37338;47.426;19.204;2024-01-30T09:33:03;32.00;;;20.17;;
51266;SDS011;37338;47.426;19.204;2024-01-30T09:35:28;29.77;;;19.07;;
51266;SDS011;37338;47.426;19.204;2024-01-30T09:37:54;30.60;;;19.90;;
51266;SDS011;37338;47.426;19.204;2024-01-30T09:40:20;33.93;;;21.07;;
51266;SDS011;37338;47.426;19.204;2024-01-30T09:42:49;34.23;;;19.07;;
51266;SDS011;37338;47.426;19.204;2024-01-30T09:45:15;28.63;;;18.60;;
51266;SDS011;37338;47.426;19.204;2024-01-30T09:47:43;27.03;;;16.90;;
51266;SDS011;37338;47.426;19.204;2024-01-30T09:50:12;26.70;;;16.27;;
51266;SDS011;37338;47.426;19.204;2024-01-30T09:52:39;23.53;;;16.40;;
51266;SDS011;37338;47.426;19.204;2024-01-30T09:55:05;28.50;;;16.67;;
51266;SDS011;37338;47.426;19.204;2024-01-30T09:57:31;23.30;;;16.17;;
51266;SDS011;37338;47.426;19.204;2024-01-30T09:59:57;28.53;;;16.07;;
51266;SDS011;37338;47.426;19.204;2024-01-30T10:02:22;20.87;;;13.70;;
51266;SDS011;37338;47.426;19.204;2024-01-30T10:04:48;26.17;;;15.30;;
51266;SDS011;37338;47.426;19.204;2024-01-30T10:07:14;23.50;;;14.33;;
51266;SDS011;37338;47.426;19.204;2024-01-30T10:09:40;28.00;;;16.83;;
51266;SDS011;37338;47.426;19.204;2024-01-30T10:12:06;27.30;;;14.83;;
51266;SDS011;37338;47.426;19.204;2024-01-30T10:14:32;27.83;;;16.57;;
51266;SDS011;37338;47.426;19.204;2024-01-30T10:16:58;22.63;;;14.17;;
51266;SDS011;37338;47.426;19.204;2024-01-30T10:19:23;25.77;;;14.73;;
51266;SDS011;37338;47.426;19.204;2024-01-30T10:21:48;24.00;;;15.20;;
51266;SDS011;37338;47.426;19.204;2024-01-30T10:24:14;26.90;;;14.77;;
51266;SDS011;37338;47.426;19.204;2024-01-30T10:26:39;26.13;;;16.20;;
51266;SDS011;37338;47.426;19.204;2024-01-30T10:29:05;21.23;;;15.23;;
51266;SDS011;37338;47.426;19.204;2024-01-30T10:31:30;26.63;;;16.17;;
51266;SDS011;37338;47.426;19.204;2024-01-30T10:33:56;24.90;;;16.27;;
51266;SDS011;37338;47.426;19.204;2024-01-30T10:36:21;29.33;;;16.67;;
51266;SDS011;37338;47.426;19.204;2024-01-30T10:38:55;22.33;;;14.90;;
51266;SDS011;37338;47.426;19.204;2024-01-30T10:41:27;23.27;;;14.73;;
51266;SDS011;37338;47.426;19.204;2024-01-30T10:44:02;24.07;;;14.50;;
51266;SDS011;37338;47.426;19.204;2024-01-30T10:46:30;24.97;;;14.13;;
51266;SDS011;37338;47.426;19.204;2024-01-30T10:48:57;22.07;;;13.03;;
51266;SDS011;37338;47.426;19.204;2024-01-30T10:51:26;19.10;;;12.67;;
51266;SDS011;37338;47.426;19.204;2024-01-30T10:53:52;19.60;;;12.57;;
51266;SDS011;37338;47.426;19.204;2024-01-30T10:56:18;41.77;;;13.47;;
51266;SDS011;37338;47.426;19.204;2024-01-30T10:58:46;20.27;;;12.60;;
51266;SDS011;37338;47.426;19.204;2024-01-30T11:01:11;21.10;;;13.30;;
51266;SDS011;37338;47.426;19.204;2024-01-30T11:03:37;25.80;;;15.97;;
51266;SDS011;37338;47.426;19.204;2024-01-30T11:06:02;23.67;;;15.37;;
51266;SDS011;37338;47.426;19.204;2024-01-30T11:08:28;28.17;;;15.40;;
51266;SDS011;37338;47.426;19.204;2024-01-30T11:10:57;21.67;;;14.70;;
51266;SDS011;37338;47.426;19.204;2024-01-30T11:13:26;21.90;;;14.23;;
51266;SDS011;37338;47.426;19.204;2024-01-30T11:15:54;22.23;;;14.83;;
51266;SDS011;37338;47.426;19.204;2024-01-30T11:18:26;23.47;;;13.67;;
51266;SDS011;37338;47.426;19.204;2024-01-30T11:20:55;20.50;;;11.13;;
51266;SDS011;37338;47.426;19.204;2024-01-30T11:23:22;22.03;;;13.07;;
51266;SDS011;37338;47.426;19.204;2024-01-30T11:25:47;23.93;;;13.33;;
51266;SDS011;37338;47.426;19.204;2024-01-30T11:28:16;18.83;;;12.33;;
51266;SDS011;37338;47.426;19.204;2024-01-30T11:30:42;21.27;;;12.93;;
51266;SDS011;37338;47.426;19.204;2024-01-30T11:33:08;24.17;;;13.50;;
51266;SDS011;37338;47.426;19.204;2024-01-30T11:35:36;20.97;;;14.17;;
51266;SDS011;37338;47.426;19.204;2024-01-30T11:38:05;17.97;;;12.17;;
51266;SDS011;37338;47.426;19.204;2024-01-30T11:40:32;22.70;;;13.77;;
51266;SDS011;37338;47.426;19.204;2024-01-30T11:42:58;20.57;;;13.47;;
51266;SDS011;37338;47.426;19.204;2024-01-30T11:45:25;33.97;;;14.40;;
51266;SDS011;37338;47.426;19.204;2024-01-30T11:47:51;21.77;;;13.63;;
51266;SDS011;37338;47.426;19.204;2024-01-30T11:50:17;19.43;;;13.90;;
51266;SDS011;37338;47.426;19.204;2024-01-30T11:52:42;23.00;;;13.17;;
51266;SDS011;37338;47.426;19.204;2024-01-30T11:55:08;19.60;;;12.37;;
51266;SDS011;37338;47.426;19.204;2024-01-30T11:57:34;20.50;;;12.67;;
51266;SDS011;37338;47.426;19.204;2024-01-30T12:00:03;21.33;;;13.00;;
51266;SDS011;37338;47.426;19.204;2024-01-30T12:02:37;20.00;;;12.63;;
51266;SDS011;37338;47.426;19.204;2024-01-30T12:05:06;18.13;;;12.83;;
51266;SDS011;37338;47.426;19.204;2024-01-30T12:07:32;20.10;;;11.73;;
51266;SDS011;37338;47.426;19.204;2024-01-30T12:09:58;25.70;;;12.13;;
51266;SDS011;37338;47.426;19.204;2024-01-30T12:12:26;19.90;;;11.53;;
51266;SDS011;37338;47.426;19.204;2024-01-30T12:14:52;20.93;;;11.63;;
51266;SDS011;37338;47.426;19.204;2024-01-30T12:17:28;18.70;;;11.97;;
51266;SDS011;37338;47.426;19.204;2024-01-30T12:20:06;14.53;;;10.40;;
51266;SDS011;37338;47.426;19.204;2024-01-30T12:22:35;15.03;;;10.07;;
51266;SDS011;37338;47.426;19.204;2024-01-30T12:25:02;16.30;;;10.07;;
51266;SDS011;37338;47.426;19.204;2024-01-30T12:27:28;14.50;;;8.77;;
51266;SDS011;37338;47.426;19.204;2024-01-30T12:29:57;12.17;;;9.30;;
51266;SDS011;37338;47.426;19.204;2024-01-30T12:32:23;22.30;;;9.50;;
51266;SDS011;37338;47.426;19.204;2024-01-30T12:34:49;15.60;;;8.37;;
51266;SDS011;37338;47.426;19.204;2024-01-30T12:37:14;15.73;;;9.27;;
51266;SDS011;37338;47.426;19.204;2024-01-30T12:39:44;10.73;;;7.17;;
51266;SDS011;37338;47.426;19.204;2024-01-30T12:42:10;12.20;;;7.57;;
51266;SDS011;37338;47.426;19.204;2024-01-30T12:44:35;11.90;;;7.50;;
51266;SDS011;37338;47.426;19.204;2024-01-30T12:47:02;13.87;;;7.47;;
51266;SDS011;37338;47.426;19.204;2024-01-30T12:49:28;11.63;;;7.43;;
51266;SDS011;37338;47.426;19.204;2024-01-30T12:51:53;12.37;;;7.10;;
51266;SDS011;37338;47.426;19.204;2024-01-30T12:54:19;11.17;;;8.07;;
51266;SDS011;37338;47.426;19.204;2024-01-30T12:56:44;11.27;;;7.20;;
51266;SDS011;37338;47.426;19.204;2024-01-30T12:59:09;10.97;;;7.00;;
51266;SDS011;37338;47.426;19.204;2024-01-30T13:01:35;13.67;;;6.20;;
51266;SDS011;37338;47.426;19.204;2024-01-30T13:04:00;13.67;;;7.20;;
51266;SDS011;37338;47.426;19.204;2024-01-30T13:06:25;9.90;;;6.87;;
51266;SDS011;37338;47.426;19.204;2024-01-30T13:08:51;9.27;;;6.63;;
51266;SDS011;37338;47.426;19.204;2024-01-30T13:11:16;8.43;;;5.63;;
51266;SDS011;37338;47.426;19.204;2024-01-30T13:13:42;8.40;;;5.93;;
51266;SDS011;37338;47.426;19.204;2024-01-30T13:16:07;8.47;;;5.30;;
51266;SDS011;37338;47.426;19.204;2024-01-30T13:18:33;9.57;;;6.57;;
51266;SDS011;37338;47.426;19.204;2024-01-30T13:20:58;10.50;;;6.00;;
51266;SDS011;37338;47.426;19.204;2024-01-30T13:23:24;19.57;;;7.00;;
51266;SDS011;37338;47.426;19.204;2024-01-30T13:25:49;8.30;;;5.63;;
51266;SDS011;37338;47.426;19.204;2024-01-30T13:28:14;7.30;;;5.73;;
51266;SDS011;37338;47.426;19.204;2024-01-30T13:30:40;9.10;;;6.03;;
51266;SDS011;37338;47.426;19.204;2024-01-30T13:33:05;9.87;;;5.53;;
51266;SDS011;37338;47.426;19.204;2024-01-30T13:35:30;10.37;;;5.73;;
51266;SDS011;37338;47.426;19.204;2024-01-30T13:37:56;12.20;;;6.00;;
51266;SDS011;37338;47.426;19.204;2024-01-30T13:40:21;11.27;;;5.57;;
51266;SDS011;37338;47.426;19.204;2024-01-30T13:42:47;11.97;;;6.77;;
51266;SDS011;37338;47.426;19.204;2024-01-30T13:45:12;6.40;;;4.97;;
51266;SDS011;37338;47.426;19.204;2024-01-30T13:47:38;9.87;;;5.77;;
51266;SDS011;37338;47.426;19.204;2024-01-30T13:50:04;8.30;;;5.23;;
51266;SDS011;37338;47.426;19.204;2024-01-30T13:52:30;15.70;;;6.10;;
51266;SDS011;37338;47.426;19.204;2024-01-30T13:54:55;9.07;;;5.57;;
51266;SDS011;37338;47.426;19.204;2024-01-30T13:57:20;9.67;;;5.60;;
51266;SDS011;37338;47.426;19.204;2024-01-30T13:59:45;18.30;;;7.03;;
51266;SDS011;37338;47.426;19.204;2024-01-30T14:02:11;11.10;;;6.07;;